createdAt,value
2019-04-28T00:01:05.187Z,65.10
2019-04-28T00:03:35.379Z,65.00
2019-04-28T00:06:05.659Z,65.30
2019-04-28T00:08:35.863Z,65.40
2019-04-28T00:11:06.015Z,65.50
2019-04-28T00:13:36.119Z,65.50
2019-04-28T00:16:07.996Z,65.80
2019-04-28T00:18:38.034Z,65.80
2019-04-28T00:21:10.962Z,65.90
2019-04-28T00:23:45.895Z,66.20
2019-04-28T00:26:26.642Z,65.90
2019-04-28T00:28:56.787Z,66.00
2019-04-28T00:31:26.848Z,66.20
2019-04-28T00:33:56.999Z,65.50
2019-04-28T00:36:27.119Z,64.40
2019-04-28T00:38:57.295Z,65.40
2019-04-28T00:41:27.379Z,65.00
2019-04-28T00:43:57.411Z,64.60
2019-04-28T00:46:31.037Z,65.10
2019-04-28T00:49:02.112Z,65.50
2019-04-28T00:51:32.411Z,64.30
2019-04-28T00:54:02.424Z,64.40
2019-04-28T00:56:32.534Z,63.80
2019-04-28T00:59:02.543Z,63.20
2019-04-28T01:01:48.932Z,64.40
2019-04-28T01:04:18.866Z,63.90
2019-04-28T01:06:51.802Z,64.90
2019-04-28T01:09:21.912Z,64.30
2019-04-28T01:11:53.461Z,64.50
2019-04-28T01:14:23.767Z,64.30
2019-04-28T01:16:55.366Z,64.80
2019-04-28T01:19:41.968Z,65.50
2019-04-28T01:22:12.143Z,66.30
2019-04-28T01:24:42.387Z,66.80
2019-04-28T01:27:14.112Z,67.10
2019-04-28T01:29:44.145Z,67.30
2019-04-28T01:32:31.526Z,68.40
2019-04-28T01:35:01.498Z,68.90
2019-04-28T01:37:31.563Z,69.40
2019-04-28T01:40:01.681Z,68.30
2019-04-28T01:42:32.815Z,68.70
2019-04-28T01:45:02.818Z,69.60
2019-04-28T01:47:33.995Z,69.70
2019-04-28T01:50:04.774Z,69.60
2019-04-28T01:52:34.819Z,70.00
2019-04-28T01:55:06.491Z,69.00
2019-04-28T01:57:36.464Z,68.70
2019-04-28T02:00:21.422Z,67.50
2019-04-28T02:02:41.658Z,66.90
2019-04-28T02:05:11.808Z,67.70
2019-04-28T02:07:41.819Z,69.00
2019-04-28T02:10:12.327Z,70.40
2019-04-28T02:12:42.343Z,72.40
2019-04-28T02:15:12.458Z,73.70
2019-04-28T02:17:42.503Z,74.00
2019-04-28T02:20:12.818Z,73.90
2019-04-28T02:22:47.371Z,73.80
2019-04-28T02:25:19.582Z,74.00
2019-04-28T02:27:50.083Z,74.50
2019-04-28T02:30:22.638Z,74.90
2019-04-28T02:32:52.035Z,75.00
2019-04-28T02:35:22.154Z,75.70
2019-04-28T02:37:52.263Z,75.50
2019-04-28T02:40:22.375Z,75.10
2019-04-28T02:42:52.509Z,74.30
2019-04-28T02:45:22.594Z,74.20
2019-04-28T02:47:54.272Z,74.00
2019-04-28T02:50:30.474Z,75.00
2019-04-28T02:53:05.082Z,74.60
2019-04-28T02:55:35.115Z,74.50
2019-04-28T02:58:05.227Z,74.90
2019-04-28T03:00:35.449Z,75.50
2019-04-28T03:03:05.487Z,74.90
2019-04-28T03:05:35.590Z,72.90
2019-04-28T03:08:05.708Z,72.70
2019-04-28T03:10:35.806Z,73.00
2019-04-28T03:13:05.961Z,73.40
2019-04-28T03:15:36.064Z,73.60
2019-04-28T03:18:06.144Z,73.80
2019-04-28T03:20:36.193Z,74.20
2019-04-28T03:23:09.157Z,75.20
2019-04-28T03:25:40.784Z,75.80
2019-04-28T03:28:21.493Z,75.90
2019-04-28T03:30:54.315Z,76.50
2019-04-28T03:33:26.640Z,76.70
2019-04-28T03:35:56.917Z,76.90
2019-04-28T03:38:26.946Z,76.60
2019-04-28T03:40:57.059Z,76.50
2019-04-28T03:43:27.173Z,76.80
2019-04-28T03:46:03.609Z,77.20
2019-04-28T03:48:33.677Z,77.50
2019-04-28T03:51:05.084Z,77.80
2019-04-28T03:53:35.094Z,78.20
2019-04-28T03:56:06.016Z,78.50
2019-04-28T03:58:36.415Z,78.10
2019-04-28T04:01:06.502Z,78.10
2019-04-28T04:03:36.481Z,78.10
2019-04-28T04:06:06.564Z,78.10
2019-04-28T04:08:36.670Z,78.10
2019-04-28T04:11:26.739Z,79.00
2019-04-28T04:14:01.641Z,79.20
2019-04-28T04:16:33.524Z,79.10
2019-04-28T04:19:05.288Z,78.50
2019-04-28T04:21:35.404Z,78.40
2019-04-28T04:24:05.525Z,77.50
2019-04-28T04:26:35.646Z,77.60
2019-04-28T04:29:05.758Z,77.60
2019-04-28T04:31:35.775Z,77.10
2019-04-28T04:34:05.840Z,77.00
2019-04-28T04:36:35.839Z,76.60
2019-04-28T04:39:07.251Z,76.40
2019-04-28T04:41:37.301Z,76.50
2019-04-28T04:44:07.420Z,76.40
2019-04-28T04:46:37.471Z,76.50
2019-04-28T04:49:07.511Z,76.00
2019-04-28T04:51:37.571Z,75.90
2019-04-28T04:54:07.537Z,76.10
2019-04-28T04:56:37.479Z,76.40
2019-04-28T04:59:07.529Z,76.10
2019-04-28T05:01:42.078Z,76.50
2019-04-28T05:04:13.822Z,76.50
2019-04-28T05:06:43.938Z,77.00
2019-04-28T05:09:13.951Z,76.80
2019-04-28T05:11:43.927Z,76.10
2019-04-28T05:14:14.002Z,76.20
2019-04-28T05:16:44.039Z,75.70
2019-04-28T05:19:14.083Z,75.40
2019-04-28T05:21:44.186Z,75.30
2019-04-28T05:24:22.338Z,75.10
2019-04-28T05:26:52.355Z,75.00
2019-04-28T05:29:26.955Z,74.90
2019-04-28T05:31:58.852Z,75.10
2019-04-28T05:34:26.591Z,75.10
2019-04-28T05:36:56.538Z,74.90
2019-04-28T05:39:26.642Z,75.40
2019-04-28T05:41:56.655Z,75.90
2019-04-28T05:44:26.646Z,76.20
2019-04-28T05:46:56.723Z,76.50
2019-04-28T05:49:34.259Z,76.40
2019-04-28T05:52:22.454Z,76.10
2019-04-28T05:54:59.955Z,76.30
2019-04-28T05:57:39.657Z,75.70
2019-04-28T06:00:14.143Z,74.70
2019-04-28T06:02:56.905Z,71.50
2019-04-28T06:05:26.383Z,70.00
2019-04-28T06:08:01.132Z,66.90
2019-04-28T06:10:31.131Z,65.50
2019-04-28T06:13:01.102Z,63.70
2019-04-28T06:15:31.143Z,63.50
2019-04-28T06:18:01.083Z,62.80
2019-04-28T06:20:31.186Z,62.00
2019-04-28T06:23:01.120Z,60.90
2019-04-28T06:25:31.227Z,61.00
2019-04-28T06:28:01.325Z,59.20
2019-04-28T06:30:31.422Z,58.50
2019-04-28T06:33:07.753Z,57.40
2019-04-28T06:35:38.867Z,57.10
2019-04-28T06:38:09.044Z,57.30
2019-04-28T06:40:39.027Z,57.40
2019-04-28T06:43:09.135Z,58.40
2019-04-28T06:45:39.243Z,58.50
2019-04-28T06:48:09.284Z,59.10
2019-04-28T06:50:39.355Z,59.00
2019-04-28T06:53:09.399Z,56.10
2019-04-28T06:55:39.447Z,53.80
2019-04-28T06:58:09.411Z,54.60
2019-04-28T07:00:39.561Z,53.20
2019-04-28T07:03:22.468Z,51.70
2019-04-28T07:05:41.222Z,53.50
2019-04-28T07:08:13.805Z,55.70
2019-04-28T07:10:42.959Z,56.80
2019-04-28T07:13:13.066Z,59.20
2019-04-28T07:15:43.034Z,60.40
2019-04-28T07:18:13.160Z,64.20
2019-04-28T07:20:53.788Z,64.00
2019-04-28T07:23:23.944Z,65.90
2019-04-28T07:25:53.955Z,64.60
2019-04-28T07:28:23.947Z,65.60
2019-04-28T07:30:54.072Z,64.30
2019-04-28T07:33:35.502Z,65.20
2019-04-28T07:35:55.723Z,66.40
2019-04-28T07:38:25.807Z,67.00
2019-04-28T07:40:55.849Z,63.20
2019-04-28T07:43:25.999Z,58.00
2019-04-28T07:45:55.967Z,56.80
2019-04-28T07:48:25.903Z,57.60
2019-04-28T07:50:56.011Z,58.80
2019-04-28T07:53:39.727Z,57.70
2019-04-28T07:56:09.806Z,58.20
2019-04-28T07:58:39.927Z,59.00
2019-04-28T08:01:12.649Z,57.70
2019-04-28T08:03:49.190Z,53.50
2019-04-28T08:06:14.321Z,51.10
2019-04-28T08:08:44.468Z,51.80
2019-04-28T08:11:14.575Z,51.60
2019-04-28T08:13:44.647Z,51.40
2019-04-28T08:16:14.838Z,51.80
2019-04-28T08:18:44.998Z,52.50
2019-04-28T08:21:15.173Z,54.20
2019-04-28T08:23:47.398Z,52.90
2019-04-28T08:26:16.765Z,52.50
2019-04-28T08:28:47.005Z,52.60
2019-04-28T08:31:18.715Z,53.10
2019-04-28T08:34:01.720Z,52.40
2019-04-28T08:36:21.879Z,52.30
2019-04-28T08:38:51.864Z,53.80
2019-04-28T08:41:21.942Z,53.60
2019-04-28T08:43:51.978Z,54.30
2019-04-28T08:46:21.915Z,53.40
2019-04-28T08:48:51.903Z,53.30
2019-04-28T08:51:21.903Z,52.70
2019-04-28T08:53:52.087Z,53.80
2019-04-28T08:56:22.059Z,53.30
2019-04-28T08:58:52.475Z,52.80
2019-04-28T09:01:22.554Z,52.60
2019-04-28T09:03:52.560Z,52.50
2019-04-28T09:06:22.635Z,56.80
2019-04-28T09:08:53.723Z,58.30
2019-04-28T09:11:23.730Z,57.80
2019-04-28T09:13:53.823Z,57.30
2019-04-28T09:16:23.863Z,57.20
2019-04-28T09:18:53.875Z,58.00
2019-04-28T09:21:23.926Z,59.30
2019-04-28T09:23:53.931Z,58.00
2019-04-28T09:26:24.460Z,58.90
2019-04-28T09:28:54.496Z,59.80
2019-04-28T09:31:24.611Z,57.60
2019-04-28T09:33:54.627Z,56.90
2019-04-28T09:36:24.817Z,56.30
2019-04-28T09:38:55.191Z,56.00
2019-04-28T09:41:25.262Z,56.10
2019-04-28T09:44:02.621Z,56.10
2019-04-28T09:46:34.298Z,54.90
2019-04-28T09:49:04.525Z,54.20
2019-04-28T09:51:34.531Z,55.40
2019-04-28T09:54:04.738Z,55.00
2019-04-28T09:56:34.814Z,54.60
2019-04-28T09:59:05.142Z,53.60
2019-04-28T10:01:35.226Z,53.60
2019-04-28T10:04:05.267Z,55.00
2019-04-28T10:06:35.383Z,56.00
2019-04-28T10:09:07.028Z,56.40
2019-04-28T10:11:37.262Z,55.90
2019-04-28T10:14:07.478Z,54.10
2019-04-28T10:16:37.594Z,54.70
2019-04-28T10:19:07.636Z,54.70
2019-04-28T10:21:37.680Z,52.80
2019-04-28T10:24:07.650Z,52.50
2019-04-28T10:26:37.659Z,50.40
2019-04-28T10:29:08.668Z,51.60
2019-04-28T10:31:38.613Z,52.20
2019-04-28T10:34:09.755Z,52.50
2019-04-28T10:36:40.126Z,51.50
2019-04-28T10:39:23.649Z,51.80
2019-04-28T10:41:53.839Z,53.40
2019-04-28T10:44:24.750Z,52.50
2019-04-28T10:46:54.876Z,50.20
2019-04-28T10:49:25.189Z,47.10
2019-04-28T10:51:59.387Z,48.50
2019-04-28T10:54:27.059Z,49.10
2019-04-28T10:56:57.239Z,48.40
2019-04-28T10:59:27.220Z,48.60
2019-04-28T11:01:57.313Z,48.50
2019-04-28T11:04:40.916Z,48.30
2019-04-28T11:07:12.571Z,48.00
2019-04-28T11:09:50.344Z,49.30
2019-04-28T11:12:27.881Z,48.20
2019-04-28T11:14:57.882Z,48.30
2019-04-28T11:17:28.520Z,48.10
2019-04-28T11:19:58.555Z,48.50
2019-04-28T11:22:28.600Z,48.00
2019-04-28T11:24:58.615Z,47.70
2019-04-28T11:27:28.931Z,46.50
2019-04-28T11:29:59.039Z,46.90
2019-04-28T11:32:29.147Z,46.70
2019-04-28T11:35:04.131Z,47.10
2019-04-28T11:37:35.789Z,46.00
2019-04-28T11:40:06.674Z,44.50
2019-04-28T11:42:36.613Z,42.80
2019-04-28T11:45:07.238Z,43.40
2019-04-28T11:47:37.385Z,44.40
2019-04-28T11:50:07.511Z,43.50
2019-04-28T11:52:37.547Z,42.10
2019-04-28T11:55:07.652Z,42.10
2019-04-28T11:57:37.773Z,42.80
2019-04-28T12:00:09.923Z,42.50
2019-04-28T12:02:39.984Z,40.30
2019-04-28T12:05:10.094Z,40.60
2019-04-28T12:07:40.166Z,41.20
2019-04-28T12:10:11.922Z,39.10
2019-04-28T12:12:52.729Z,40.20
2019-04-28T12:15:27.427Z,40.20
2019-04-28T12:18:04.955Z,38.90
2019-04-28T12:20:35.036Z,39.00
2019-04-28T12:23:05.355Z,39.50
2019-04-28T12:25:36.875Z,40.40
2019-04-28T12:28:06.950Z,41.10
2019-04-28T12:30:37.074Z,42.20
2019-04-28T12:33:07.011Z,41.20
2019-04-28T12:35:47.257Z,43.20
2019-04-28T12:38:08.780Z,46.10
2019-04-28T12:40:38.828Z,46.60
2019-04-28T12:43:08.912Z,47.00
2019-04-28T12:45:39.038Z,48.30
2019-04-28T12:48:09.079Z,48.20
2019-04-28T12:50:40.735Z,48.60
2019-04-28T12:53:10.775Z,48.00
2019-04-28T12:55:40.848Z,46.60
2019-04-28T12:58:10.903Z,47.90
2019-04-28T13:00:45.445Z,48.40
2019-04-28T13:03:19.881Z,48.50
2019-04-28T13:06:02.288Z,48.90
2019-04-28T13:08:23.115Z,50.00
2019-04-28T13:10:53.154Z,50.80
2019-04-28T13:13:23.172Z,51.30
2019-04-28T13:15:53.218Z,51.50
2019-04-28T13:18:23.151Z,51.90
2019-04-28T13:20:53.277Z,51.80
2019-04-28T13:23:23.298Z,52.90
2019-04-28T13:25:53.339Z,53.30
2019-04-28T13:28:23.442Z,53.00
2019-04-28T13:30:53.521Z,52.50
2019-04-28T13:33:23.535Z,52.00
2019-04-28T13:35:57.396Z,51.60
2019-04-28T13:38:27.360Z,51.20
2019-04-28T13:40:57.485Z,51.70
2019-04-28T13:43:27.614Z,52.40
2019-04-28T13:45:57.736Z,52.60
2019-04-28T13:48:27.624Z,53.30
2019-04-28T13:50:57.693Z,55.30
2019-04-28T13:53:27.866Z,54.80
2019-04-28T13:55:59.613Z,59.60
2019-04-28T13:58:33.954Z,60.50
2019-04-28T14:01:08.723Z,61.20
2019-04-28T14:03:40.546Z,62.60
2019-04-28T14:06:28.063Z,62.00
2019-04-28T14:08:52.863Z,62.00
2019-04-28T14:11:22.851Z,63.00
2019-04-28T14:13:52.949Z,63.90
2019-04-28T14:16:23.055Z,64.30
2019-04-28T14:18:53.020Z,63.90
2019-04-28T14:21:23.016Z,66.90
2019-04-28T14:23:53.167Z,66.50
2019-04-28T14:26:23.243Z,67.40
2019-04-28T14:28:53.237Z,65.10
2019-04-28T14:31:23.338Z,67.40
2019-04-28T14:33:53.386Z,65.30
2019-04-28T14:36:23.322Z,65.80
2019-04-28T14:38:53.366Z,65.50
2019-04-28T14:41:23.444Z,65.10
2019-04-28T14:43:53.616Z,64.50
2019-04-28T14:46:23.674Z,64.50
2019-04-28T14:48:53.760Z,64.30
2019-04-28T14:51:23.849Z,63.80
2019-04-28T14:53:53.776Z,64.00
2019-04-28T14:56:23.786Z,64.00
2019-04-28T14:58:53.879Z,62.20
2019-04-28T15:01:25.571Z,63.50
2019-04-28T15:04:00.051Z,64.50
2019-04-28T15:06:31.659Z,65.00
2019-04-28T15:09:18.352Z,63.80
2019-04-28T15:11:50.139Z,62.80
2019-04-28T15:14:21.154Z,62.80
2019-04-28T15:16:51.204Z,62.30
2019-04-28T15:19:27.672Z,63.40
2019-04-28T15:21:59.707Z,63.70
2019-04-28T15:24:29.813Z,62.00
2019-04-28T15:26:59.966Z,63.80
2019-04-28T15:29:29.966Z,62.90
2019-04-28T15:31:59.946Z,62.30
2019-04-28T15:34:30.601Z,63.50
2019-04-28T15:37:09.637Z,62.80
2019-04-28T15:39:33.166Z,61.30
2019-04-28T15:42:03.203Z,61.80
2019-04-28T15:44:33.243Z,63.10
2019-04-28T15:47:03.433Z,62.20
2019-04-28T15:49:33.437Z,61.00
2019-04-28T15:52:03.680Z,60.90
2019-04-28T15:54:34.843Z,60.00
2019-04-28T15:57:04.990Z,59.70
2019-04-28T15:59:35.040Z,60.70
2019-04-28T16:02:05.202Z,59.30
2019-04-28T16:04:35.255Z,59.10
2019-04-28T16:07:05.366Z,59.80
2019-04-28T16:09:36.384Z,60.30
2019-04-28T16:12:06.567Z,60.00
2019-04-28T16:14:36.646Z,60.20
2019-04-28T16:17:06.805Z,60.20
2019-04-28T16:19:36.947Z,59.40
2019-04-28T16:22:07.066Z,60.70
2019-04-28T16:24:37.126Z,61.30
2019-04-28T16:27:07.314Z,61.90
2019-04-28T16:29:37.400Z,61.70
2019-04-28T16:32:09.821Z,61.60
2019-04-28T16:34:39.119Z,61.50
2019-04-28T16:37:09.131Z,61.70
2019-04-28T16:39:39.171Z,60.30
2019-04-28T16:42:09.184Z,60.30
2019-04-28T16:44:41.403Z,60.40
2019-04-28T16:47:11.369Z,59.10
2019-04-28T16:49:41.468Z,59.40
2019-04-28T16:52:11.440Z,59.90
2019-04-28T16:54:41.443Z,58.80
2019-04-28T16:57:15.900Z,58.80
2019-04-28T16:59:47.644Z,58.70
2019-04-28T17:02:28.021Z,58.20
2019-04-28T17:04:58.050Z,58.20
2019-04-28T17:07:28.095Z,58.20
2019-04-28T17:09:58.198Z,58.20
2019-04-28T17:12:28.377Z,58.50
2019-04-28T17:14:58.373Z,58.70
2019-04-28T17:17:28.633Z,58.70
2019-04-28T17:19:58.729Z,59.00
2019-04-28T17:22:28.743Z,59.60
2019-04-28T17:24:58.858Z,59.40
2019-04-28T17:27:28.863Z,59.20
2019-04-28T17:29:59.102Z,58.90
2019-04-28T17:32:29.219Z,59.50
2019-04-28T17:35:00.399Z,59.60
2019-04-28T17:37:30.506Z,60.10
2019-04-28T17:40:01.595Z,59.70
2019-04-28T17:42:33.303Z,60.10
2019-04-28T17:45:04.285Z,59.90
2019-04-28T17:47:34.926Z,60.60
2019-04-28T17:50:06.275Z,61.10
2019-04-28T17:52:36.434Z,61.50
2019-04-28T17:55:07.043Z,61.10
2019-04-28T17:57:37.359Z,61.50
2019-04-28T18:00:10.784Z,61.80
2019-04-28T18:02:54.889Z,62.00
2019-04-28T18:05:38.198Z,61.60
2019-04-28T18:08:20.428Z,61.30
2019-04-28T18:10:40.032Z,61.90
2019-04-28T18:13:10.259Z,61.60
2019-04-28T18:15:59.521Z,61.30
2019-04-28T18:18:34.481Z,62.40
2019-04-28T18:21:04.623Z,63.20
2019-04-28T18:23:35.701Z,64.20
2019-04-28T18:26:05.750Z,64.80
2019-04-28T18:28:35.895Z,64.30
2019-04-28T18:31:25.629Z,64.80
2019-04-28T18:34:12.207Z,64.80
2019-04-28T18:37:00.185Z,64.30
2019-04-28T18:39:47.815Z,64.10
2019-04-28T18:42:22.547Z,64.70
2019-04-28T18:44:51.822Z,63.90
2019-04-28T18:47:21.658Z,64.30
2019-04-28T18:49:51.864Z,63.60
2019-04-28T18:52:21.902Z,63.50
2019-04-28T18:54:52.128Z,65.00
2019-04-28T18:57:22.146Z,64.40
2019-04-28T18:59:52.144Z,63.80
2019-04-28T19:02:23.764Z,63.70
2019-04-28T19:04:53.770Z,63.10
2019-04-28T19:07:26.431Z,62.30
2019-04-28T19:09:58.002Z,62.40
2019-04-28T19:12:32.280Z,62.70
2019-04-28T19:15:06.953Z,63.70
2019-04-28T19:17:38.707Z,64.10
2019-04-28T19:20:09.011Z,64.10
2019-04-28T19:22:46.785Z,64.20
2019-04-28T19:25:17.837Z,63.00
2019-04-28T19:27:47.947Z,62.90
2019-04-28T19:30:18.060Z,64.60
2019-04-28T19:32:48.107Z,64.90
2019-04-28T19:35:18.168Z,65.20
2019-04-28T19:37:48.221Z,65.70
2019-04-28T19:40:18.346Z,66.50
2019-04-28T19:42:48.417Z,67.30
2019-04-28T19:45:19.729Z,66.80
2019-04-28T19:47:49.811Z,66.70
2019-04-28T19:50:20.986Z,67.90
2019-04-28T19:52:52.114Z,67.20
2019-04-28T19:55:23.841Z,66.20
2019-04-28T19:57:55.595Z,66.60
2019-04-28T20:00:43.610Z,63.20
2019-04-28T20:03:15.313Z,66.20
2019-04-28T20:05:45.456Z,65.70
2019-04-28T20:08:15.554Z,65.20
2019-04-28T20:10:45.573Z,65.10
2019-04-28T20:13:15.617Z,63.10
2019-04-28T20:15:45.735Z,63.10
2019-04-28T20:18:15.963Z,64.80
2019-04-28T20:20:46.033Z,64.00
2019-04-28T20:23:16.152Z,57.00
2019-04-28T20:25:46.337Z,56.90
2019-04-28T20:28:16.530Z,57.40
2019-04-28T20:30:46.656Z,58.20
2019-04-28T20:33:16.774Z,59.50
2019-04-28T20:35:48.673Z,59.60
2019-04-28T20:38:23.574Z,60.10
2019-04-28T20:40:58.054Z,57.80
2019-04-28T20:43:29.197Z,53.90
2019-04-28T20:45:59.275Z,52.40
2019-04-28T20:48:29.355Z,51.80
2019-04-28T20:50:59.502Z,51.10
2019-04-28T20:53:29.610Z,51.00
2019-04-28T20:55:59.539Z,50.80
2019-04-28T20:58:29.629Z,50.70
2019-04-28T21:01:00.914Z,50.60
2019-04-28T21:03:32.191Z,50.50
2019-04-28T21:06:02.341Z,50.60
2019-04-28T21:08:32.382Z,50.50
2019-04-28T21:11:02.352Z,50.80
2019-04-28T21:13:32.366Z,51.20
2019-04-28T21:16:02.449Z,51.10
2019-04-28T21:18:32.487Z,51.10
2019-04-28T21:21:02.531Z,51.30
2019-04-28T21:23:32.507Z,52.00
2019-04-28T21:26:03.594Z,51.90
2019-04-28T21:28:33.639Z,52.50
2019-04-28T21:31:03.714Z,52.80
2019-04-28T21:33:33.809Z,54.00
2019-04-28T21:36:03.802Z,54.30
2019-04-28T21:38:33.787Z,55.40
2019-04-28T21:41:03.792Z,56.10
2019-04-28T21:43:41.564Z,56.60
2019-04-28T21:46:25.042Z,56.80
2019-04-28T21:48:56.651Z,57.40
2019-04-28T21:51:26.723Z,60.60
2019-04-28T21:53:56.848Z,62.40
2019-04-28T21:56:26.819Z,65.90
2019-04-28T21:58:56.822Z,68.70
2019-04-28T22:01:26.995Z,71.90
2019-04-28T22:03:57.408Z,69.20
2019-04-28T22:06:27.408Z,73.50
2019-04-28T22:08:57.526Z,71.20
2019-04-28T22:11:28.504Z,71.80
2019-04-28T22:13:58.549Z,72.90
2019-04-28T22:16:28.668Z,73.40
2019-04-28T22:18:59.049Z,70.30
2019-04-28T22:21:29.327Z,72.20
2019-04-28T22:24:13.332Z,72.10
2019-04-28T22:26:48.497Z,72.70
2019-04-28T22:29:18.571Z,72.40
2019-04-28T22:31:50.315Z,71.80
2019-04-28T22:34:20.911Z,71.60
2019-04-28T22:36:51.520Z,70.80
2019-04-28T22:39:21.743Z,67.80
2019-04-28T22:41:51.927Z,69.50
2019-04-28T22:44:23.163Z,71.10
2019-04-28T22:46:53.179Z,71.30
2019-04-28T22:49:23.460Z,72.40
2019-04-28T22:51:53.459Z,73.50
2019-04-28T22:54:28.203Z,73.60
2019-04-28T22:56:59.921Z,75.00
2019-04-28T22:59:33.518Z,75.80
2019-04-28T23:02:05.891Z,76.10
2019-04-28T23:04:37.626Z,77.60
2019-04-28T23:07:09.896Z,78.40
2019-04-28T23:09:40.081Z,78.90
2019-04-28T23:12:10.395Z,79.20
2019-04-28T23:14:40.475Z,80.70
2019-04-28T23:17:12.221Z,79.00
2019-04-28T23:19:43.998Z,78.70
2019-04-28T23:22:19.747Z,78.70
2019-04-28T23:24:49.720Z,78.20
2019-04-28T23:27:19.728Z,77.50
2019-04-28T23:29:49.699Z,78.20
2019-04-28T23:32:19.740Z,77.90
2019-04-28T23:34:50.605Z,80.90
2019-04-28T23:37:20.569Z,81.20
2019-04-28T23:39:50.606Z,80.10
2019-04-28T23:42:30.962Z,81.20
2019-04-28T23:45:00.935Z,81.40
2019-04-28T23:47:31.090Z,78.70
2019-04-28T23:50:01.265Z,78.60
2019-04-28T23:52:32.912Z,78.80
2019-04-28T23:55:04.653Z,79.20
2019-04-28T23:57:34.756Z,79.70
